sensor_id;sensor_type;location;lat;lon;timestamp;pressure;altitude;pressure_sealevel;temperature;humidity
51239;BME280;38154;47.548;18.828;2023-07-24T00:01:33;98529.75;;;20.79;100.00
51239;BME280;38154;47.548;18.828;2023-07-24T00:03:59;98535.84;;;20.81;100.00
51239;BME280;38154;47.548;18.828;2023-07-24T00:06:25;98532.25;;;20.82;100.00
51239;BME280;38154;47.548;18.828;2023-07-24T00:08:51;98526.31;;;20.77;100.00
51239;BME280;38154;47.548;18.828;2023-07-24T00:11:17;98528.13;;;20.74;100.00
51239;BME280;38154;47.548;18.828;2023-07-24T00:13:44;98522.34;;;20.66;100.00
51239;BME280;38154;47.548;18.828;2023-07-24T00:16:10;98522.47;;;20.63;100.00
51239;BME280;38154;47.548;18.828;2023-07-24T00:18:36;98517.03;;;20.66;100.00
51239;BME280;38154;47.548;18.828;2023-07-24T00:21:02;98513.69;;;20.61;100.00
51239;BME280;38154;47.548;18.828;2023-07-24T00:23:28;98513.59;;;20.64;100.00
51239;BME280;38154;47.548;18.828;2023-07-24T00:25:54;98507.59;;;20.59;100.00
51239;BME280;38154;47.548;18.828;2023-07-24T00:28:20;98505.22;;;20.53;100.00
51239;BME280;38154;47.548;18.828;2023-07-24T00:30:45;98508.66;;;20.55;100.00
51239;BME280;38154;47.548;18.828;2023-07-24T00:33:11;98505.91;;;20.58;100.00
51239;BME280;38154;47.548;18.828;2023-07-24T00:35:37;98512.31;;;20.52;100.00
51239;BME280;38154;47.548;18.828;2023-07-24T00:38:03;98509.59;;;20.54;100.00
51239;BME280;38154;47.548;18.828;2023-07-24T00:40:29;98502.66;;;20.51;100.00
51239;BME280;38154;47.548;18.828;2023-07-24T00:42:55;98500.78;;;20.53;100.00
51239;BME280;38154;47.548;18.828;2023-07-24T00:45:22;98495.03;;;20.44;100.00
51239;BME280;38154;47.548;18.828;2023-07-24T00:47:48;98488.06;;;20.41;100.00
51239;BME280;38154;47.548;18.828;2023-07-24T00:50:14;98490.81;;;20.39;100.00
51239;BME280;38154;47.548;18.828;2023-07-24T00:52:41;98490.59;;;20.44;100.00
51239;BME280;38154;47.548;18.828;2023-07-24T00:55:09;98480.94;;;20.43;100.00
51239;BME280;38154;47.548;18.828;2023-07-24T00:57:36;98482.44;;;20.49;100.00
51239;BME280;38154;47.548;18.828;2023-07-24T01:00:02;98472.69;;;20.49;100.00
51239;BME280;38154;47.548;18.828;2023-07-24T01:02:30;98479.97;;;20.44;100.00
51239;BME280;38154;47.548;18.828;2023-07-24T01:04:56;98477.06;;;20.50;100.00
51239;BME280;38154;47.548;18.828;2023-07-24T01:07:22;98478.06;;;20.48;100.00
51239;BME280;38154;47.548;18.828;2023-07-24T01:09:48;98487.59;;;20.52;100.00
51239;BME280;38154;47.548;18.828;2023-07-24T01:12:27;98488.25;;;20.57;100.00
51239;BME280;38154;47.548;18.828;2023-07-24T01:17:51;98489.19;;;20.56;100.00
51239;BME280;38154;47.548;18.828;2023-07-24T01:20:26;98487.34;;;20.58;100.00
51239;BME280;38154;47.548;18.828;2023-07-24T01:25:35;98483.69;;;20.61;100.00
51239;BME280;38154;47.548;18.828;2023-07-24T01:28:07;98487.97;;;20.65;100.00
51239;BME280;38154;47.548;18.828;2023-07-24T01:30:33;98479.25;;;20.61;100.00
51239;BME280;38154;47.548;18.828;2023-07-24T01:32:59;98477.81;;;20.54;100.00
51239;BME280;38154;47.548;18.828;2023-07-24T01:35:26;98477.16;;;20.49;100.00
51239;BME280;38154;47.548;18.828;2023-07-24T01:37:54;98477.94;;;20.51;100.00
51239;BME280;38154;47.548;18.828;2023-07-24T01:40:21;98470.81;;;20.53;100.00
51239;BME280;38154;47.548;18.828;2023-07-24T01:42:48;98471.78;;;20.50;100.00
51239;BME280;38154;47.548;18.828;2023-07-24T01:45:15;98476.28;;;20.48;100.00
51239;BME280;38154;47.548;18.828;2023-07-24T01:47:41;98477.41;;;20.43;100.00
51239;BME280;38154;47.548;18.828;2023-07-24T01:50:07;98471.44;;;20.37;100.00
51239;BME280;38154;47.548;18.828;2023-07-24T01:52:33;98473.25;;;20.37;100.00
51239;BME280;38154;47.548;18.828;2023-07-24T01:54:59;98464.56;;;20.33;100.00
51239;BME280;38154;47.548;18.828;2023-07-24T01:57:25;98473.38;;;20.34;100.00
51239;BME280;38154;47.548;18.828;2023-07-24T01:59:51;98471.81;;;20.30;100.00
51239;BME280;38154;47.548;18.828;2023-07-24T02:02:17;98468.37;;;20.28;100.00
51239;BME280;38154;47.548;18.828;2023-07-24T02:04:43;98464.78;;;20.29;100.00
51239;BME280;38154;47.548;18.828;2023-07-24T02:07:08;98465.56;;;20.31;100.00
51239;BME280;38154;47.548;18.828;2023-07-24T02:09:34;98470.91;;;20.29;100.00
51239;BME280;38154;47.548;18.828;2023-07-24T02:12:00;98465.56;;;20.31;100.00
51239;BME280;38154;47.548;18.828;2023-07-24T02:14:27;98468.44;;;20.26;100.00
51239;BME280;38154;47.548;18.828;2023-07-24T02:16:53;98469.94;;;20.32;100.00
51239;BME280;38154;47.548;18.828;2023-07-24T02:19:19;98472.78;;;20.27;100.00
51239;BME280;38154;47.548;18.828;2023-07-24T02:21:45;98474.88;;;20.19;100.00
51239;BME280;38154;47.548;18.828;2023-07-24T02:24:11;98468.16;;;20.12;100.00
51239;BME280;38154;47.548;18.828;2023-07-24T02:26:37;98465.75;;;20.06;100.00
51239;BME280;38154;47.548;18.828;2023-07-24T02:29:03;98465.28;;;19.96;100.00
51239;BME280;38154;47.548;18.828;2023-07-24T02:31:29;98469.72;;;19.95;100.00
51239;BME280;38154;47.548;18.828;2023-07-24T02:33:54;98468.97;;;19.92;100.00
51239;BME280;38154;47.548;18.828;2023-07-24T02:36:20;98465.66;;;19.87;100.00
51239;BME280;38154;47.548;18.828;2023-07-24T02:38:46;98468.19;;;19.90;100.00
51239;BME280;38154;47.548;18.828;2023-07-24T02:41:12;98469.72;;;19.95;100.00
51239;BME280;38154;47.548;18.828;2023-07-24T02:43:38;98465.16;;;19.99;100.00
51239;BME280;38154;47.548;18.828;2023-07-24T02:46:04;98466.63;;;20.06;100.00
51239;BME280;38154;47.548;18.828;2023-07-24T02:48:30;98459.28;;;20.13;100.00
51239;BME280;38154;47.548;18.828;2023-07-24T02:50:55;98460.06;;;20.15;100.00
51239;BME280;38154;47.548;18.828;2023-07-24T02:53:21;98467.97;;;20.16;100.00
51239;BME280;38154;47.548;18.828;2023-07-24T02:55:47;98468.22;;;20.10;100.00
51239;BME280;38154;47.548;18.828;2023-07-24T02:58:13;98469.34;;;20.05;100.00
51239;BME280;38154;47.548;18.828;2023-07-24T03:00:40;98467.78;;;19.99;100.00
51239;BME280;38154;47.548;18.828;2023-07-24T03:03:06;98464.28;;;19.98;100.00
51239;BME280;38154;47.548;18.828;2023-07-24T03:05:34;98466.22;;;19.95;100.00
51239;BME280;38154;47.548;18.828;2023-07-24T03:07:59;98462.06;;;19.89;100.00
51239;BME280;38154;47.548;18.828;2023-07-24T03:10:25;98458.69;;;19.84;100.00
51239;BME280;38154;47.548;18.828;2023-07-24T03:12:51;98458.59;;;19.87;100.00
51239;BME280;38154;47.548;18.828;2023-07-24T03:15:18;98450.09;;;19.79;100.00
51239;BME280;38154;47.548;18.828;2023-07-24T03:17:44;98445.91;;;19.73;100.00
51239;BME280;38154;47.548;18.828;2023-07-24T03:20:16;98457.31;;;19.75;100.00
51239;BME280;38154;47.548;18.828;2023-07-24T03:22:43;98452.69;;;19.80;100.00
51239;BME280;38154;47.548;18.828;2023-07-24T03:25:09;98449.38;;;19.75;100.00
51239;BME280;38154;47.548;18.828;2023-07-24T03:27:35;98457.97;;;19.80;100.00
51239;BME280;38154;47.548;18.828;2023-07-24T03:30:02;98448.53;;;19.73;100.00
51239;BME280;38154;47.548;18.828;2023-07-24T03:32:29;98438.09;;;19.70;100.00
51239;BME280;38154;47.548;18.828;2023-07-24T03:34:54;98435.28;;;19.75;100.00
51239;BME280;38154;47.548;18.828;2023-07-24T03:37:20;98436.28;;;19.71;100.00
51239;BME280;38154;47.548;18.828;2023-07-24T03:39:46;98431.16;;;19.68;100.00
51239;BME280;38154;47.548;18.828;2023-07-24T03:42:28;98430.84;;;19.75;100.00
51239;BME280;38154;47.548;18.828;2023-07-24T03:44:54;98444.03;;;19.77;100.00
51239;BME280;38154;47.548;18.828;2023-07-24T03:47:21;98442.03;;;19.82;100.00
51239;BME280;38154;47.548;18.828;2023-07-24T03:49:47;98440.13;;;19.86;100.00
51239;BME280;38154;47.548;18.828;2023-07-24T03:52:13;98433.84;;;19.88;100.00
51239;BME280;38154;47.548;18.828;2023-07-24T03:54:38;98439.69;;;19.96;100.00
51239;BME280;38154;47.548;18.828;2023-07-24T03:57:04;98434.28;;;19.99;100.00
51239;BME280;38154;47.548;18.828;2023-07-24T03:59:31;98437.56;;;20.05;100.00
51239;BME280;38154;47.548;18.828;2023-07-24T04:01:57;98431.16;;;20.10;100.00
51239;BME280;38154;47.548;18.828;2023-07-24T04:04:23;98438.78;;;20.18;100.00
51239;BME280;38154;47.548;18.828;2023-07-24T04:06:50;98438.56;;;20.23;100.00
51239;BME280;38154;47.548;18.828;2023-07-24T04:09:16;98439.81;;;20.34;100.00
51239;BME280;38154;47.548;18.828;2023-07-24T04:11:42;98441.94;;;20.47;100.00
51239;BME280;38154;47.548;18.828;2023-07-24T04:14:08;98437.28;;;20.52;100.00
51239;BME280;38154;47.548;18.828;2023-07-24T04:16:34;98449.09;;;20.65;100.00
51239;BME280;38154;47.548;18.828;2023-07-24T04:19:00;98452.25;;;20.73;100.00
51239;BME280;38154;47.548;18.828;2023-07-24T04:21:26;98445.59;;;21.03;100.00
51239;BME280;38154;47.548;18.828;2023-07-24T04:23:52;98441.94;;;21.24;100.00
51239;BME280;38154;47.548;18.828;2023-07-24T04:26:18;98440.72;;;21.51;100.00
51239;BME280;38154;47.548;18.828;2023-07-24T04:28:44;98437.47;;;21.63;100.00
51239;BME280;38154;47.548;18.828;2023-07-24T04:31:09;98442.47;;;21.69;100.00
51239;BME280;38154;47.548;18.828;2023-07-24T04:33:35;98441.56;;;21.87;100.00
51239;BME280;38154;47.548;18.828;2023-07-24T04:36:01;98450.00;;;21.96;100.00
51239;BME280;38154;47.548;18.828;2023-07-24T04:38:27;98445.00;;;22.07;100.00
51239;BME280;38154;47.548;18.828;2023-07-24T04:40:53;98449.50;;;22.05;100.00
51239;BME280;38154;47.548;18.828;2023-07-24T04:43:19;98443.50;;;22.01;100.00
51239;BME280;38154;47.548;18.828;2023-07-24T04:45:45;98448.28;;;22.12;100.00
51239;BME280;38154;47.548;18.828;2023-07-24T04:48:11;98441.56;;;22.22;100.00
51239;BME280;38154;47.548;18.828;2023-07-24T04:50:36;98444.06;;;22.26;100.00
51239;BME280;38154;47.548;18.828;2023-07-24T04:53:02;98446.25;;;22.35;100.00
51239;BME280;38154;47.548;18.828;2023-07-24T04:55:28;98445.47;;;22.33;100.00
51239;BME280;38154;47.548;18.828;2023-07-24T04:57:54;98454.06;;;22.38;100.00
51239;BME280;38154;47.548;18.828;2023-07-24T05:00:20;98452.72;;;22.64;100.00
51239;BME280;38154;47.548;18.828;2023-07-24T05:02:46;98441.94;;;22.83;100.00
51239;BME280;38154;47.548;18.828;2023-07-24T05:05:12;98451.88;;;22.95;100.00
51239;BME280;38154;47.548;18.828;2023-07-24T05:07:37;98452.66;;;22.97;100.00
51239;BME280;38154;47.548;18.828;2023-07-24T05:10:04;98455.16;;;23.01;100.00
51239;BME280;38154;47.548;18.828;2023-07-24T05:12:30;98455.91;;;23.20;100.00
51239;BME280;38154;47.548;18.828;2023-07-24T05:14:55;98454.00;;;23.22;100.00
51239;BME280;38154;47.548;18.828;2023-07-24T05:17:21;98451.50;;;23.19;100.00
51239;BME280;38154;47.548;18.828;2023-07-24T05:19:47;98453.16;;;23.22;100.00
51239;BME280;38154;47.548;18.828;2023-07-24T05:22:13;98461.22;;;23.20;100.00
51239;BME280;38154;47.548;18.828;2023-07-24T05:24:39;98466.47;;;23.22;100.00
51239;BME280;38154;47.548;18.828;2023-07-24T05:27:05;98466.53;;;23.20;100.00
51239;BME280;38154;47.548;18.828;2023-07-24T05:29:31;98463.88;;;23.36;100.00
51239;BME280;38154;47.548;18.828;2023-07-24T05:31:57;98461.03;;;23.55;100.00
51239;BME280;38154;47.548;18.828;2023-07-24T05:34:25;98461.13;;;23.53;100.00
51239;BME280;38154;47.548;18.828;2023-07-24T05:36:51;98460.09;;;23.56;100.00
51239;BME280;38154;47.548;18.828;2023-07-24T05:39:17;98458.78;;;23.79;100.00
51239;BME280;38154;47.548;18.828;2023-07-24T05:41:43;98453.87;;;23.87;100.00
51239;BME280;38154;47.548;18.828;2023-07-24T05:44:09;98454.97;;;23.99;100.00
51239;BME280;38154;47.548;18.828;2023-07-24T05:46:34;98456.63;;;24.02;100.00
51239;BME280;38154;47.548;18.828;2023-07-24T05:49:00;98459.53;;;23.97;100.00
51239;BME280;38154;47.548;18.828;2023-07-24T05:51:27;98453.28;;;23.98;100.00
51239;BME280;38154;47.548;18.828;2023-07-24T05:53:53;98451.69;;;24.10;100.00
51239;BME280;38154;47.548;18.828;2023-07-24T05:56:19;98448.94;;;24.26;100.00
51239;BME280;38154;47.548;18.828;2023-07-24T05:58:45;98446.50;;;24.37;100.00
51239;BME280;38154;47.548;18.828;2023-07-24T06:01:11;98444.81;;;24.51;100.00
51239;BME280;38154;47.548;18.828;2023-07-24T06:03:37;98445.56;;;24.53;100.00
51239;BME280;38154;47.548;18.828;2023-07-24T06:06:04;98438.91;;;24.45;100.00
51239;BME280;38154;47.548;18.828;2023-07-24T06:08:30;98441.31;;;24.65;100.00
51239;BME280;38154;47.548;18.828;2023-07-24T06:10:56;98439.88;;;24.73;100.00
51239;BME280;38154;47.548;18.828;2023-07-24T06:13:22;98440.44;;;25.36;100.00
51239;BME280;38154;47.548;18.828;2023-07-24T06:15:49;98441.75;;;25.98;100.00
51239;BME280;38154;47.548;18.828;2023-07-24T06:18:16;98444.25;;;27.03;97.51
51239;BME280;38154;47.548;18.828;2023-07-24T06:20:42;98453.31;;;27.64;91.87
51239;BME280;38154;47.548;18.828;2023-07-24T06:23:07;98454.91;;;29.07;82.03
51239;BME280;38154;47.548;18.828;2023-07-24T06:25:33;98455.50;;;30.20;72.57
51239;BME280;38154;47.548;18.828;2023-07-24T06:27:59;98452.56;;;31.37;67.14
51239;BME280;38154;47.548;18.828;2023-07-24T06:30:25;98454.81;;;32.31;61.14
51239;BME280;38154;47.548;18.828;2023-07-24T06:32:51;98447.59;;;31.22;63.16
51239;BME280;38154;47.548;18.828;2023-07-24T06:35:17;98450.66;;;31.08;63.69
51239;BME280;38154;47.548;18.828;2023-07-24T06:37:43;98449.44;;;30.39;65.99
51239;BME280;38154;47.548;18.828;2023-07-24T06:40:09;98450.31;;;30.70;66.43
51239;BME280;38154;47.548;18.828;2023-07-24T06:42:35;98454.41;;;31.26;63.30
51239;BME280;38154;47.548;18.828;2023-07-24T06:45:01;98455.81;;;31.71;61.63
51239;BME280;38154;47.548;18.828;2023-07-24T06:47:27;98456.78;;;32.58;58.91
51239;BME280;38154;47.548;18.828;2023-07-24T06:49:53;98454.47;;;34.38;52.62
51239;BME280;38154;47.548;18.828;2023-07-24T06:52:19;98462.75;;;35.66;47.57
51239;BME280;38154;47.548;18.828;2023-07-24T06:54:45;98459.94;;;35.76;47.10
51239;BME280;38154;47.548;18.828;2023-07-24T06:57:11;98456.50;;;35.65;47.31
51239;BME280;38154;47.548;18.828;2023-07-24T06:59:37;98462.91;;;36.32;45.12
51239;BME280;38154;47.548;18.828;2023-07-24T07:02:03;98459.19;;;37.05;43.41
51239;BME280;38154;47.548;18.828;2023-07-24T07:04:28;98458.62;;;36.54;44.01
51239;BME280;38154;47.548;18.828;2023-07-24T07:06:54;98459.97;;;37.30;42.63
51239;BME280;38154;47.548;18.828;2023-07-24T07:09:20;98457.16;;;37.07;42.52
51239;BME280;38154;47.548;18.828;2023-07-24T07:11:46;98450.47;;;37.66;41.79
51239;BME280;38154;47.548;18.828;2023-07-24T07:14:12;98447.66;;;38.44;38.92
51239;BME280;38154;47.548;18.828;2023-07-24T07:16:38;98440.38;;;38.59;38.83
51239;BME280;38154;47.548;18.828;2023-07-24T07:19:04;98432.91;;;37.37;40.76
51239;BME280;38154;47.548;18.828;2023-07-24T07:21:30;98431.16;;;37.53;40.58
51239;BME280;38154;47.548;18.828;2023-07-24T07:23:56;98435.34;;;37.24;41.21
51239;BME280;38154;47.548;18.828;2023-07-24T07:26:21;98429.00;;;37.71;40.82
51239;BME280;38154;47.548;18.828;2023-07-24T07:28:48;98425.78;;;38.37;39.16
51239;BME280;38154;47.548;18.828;2023-07-24T07:31:14;98429.22;;;38.84;37.78
51239;BME280;38154;47.548;18.828;2023-07-24T07:33:40;98424.06;;;38.74;37.96
51239;BME280;38154;47.548;18.828;2023-07-24T07:36:05;98424.47;;;38.10;39.33
51239;BME280;38154;47.548;18.828;2023-07-24T07:38:32;98421.53;;;38.49;38.13
51239;BME280;38154;47.548;18.828;2023-07-24T07:40:58;98425.22;;;38.41;38.51
51239;BME280;38154;47.548;18.828;2023-07-24T07:43:24;98425.94;;;38.73;37.84
51239;BME280;38154;47.548;18.828;2023-07-24T07:45:56;98431.00;;;38.76;36.74
51239;BME280;38154;47.548;18.828;2023-07-24T07:48:22;98428.44;;;40.08;35.15
51239;BME280;38154;47.548;18.828;2023-07-24T07:50:51;98429.41;;;40.00;35.07
51239;BME280;38154;47.548;18.828;2023-07-24T07:53:17;98422.56;;;40.11;34.60
51239;BME280;38154;47.548;18.828;2023-07-24T07:55:43;98426.88;;;38.95;36.40
51239;BME280;38154;47.548;18.828;2023-07-24T07:58:09;98431.44;;;37.66;37.90
51239;BME280;38154;47.548;18.828;2023-07-24T08:00:35;98423.28;;;37.26;39.63
51239;BME280;38154;47.548;18.828;2023-07-24T08:03:01;98429.59;;;38.04;38.13
51239;BME280;38154;47.548;18.828;2023-07-24T08:05:27;98431.47;;;39.25;36.35
51239;BME280;38154;47.548;18.828;2023-07-24T08:07:53;98433.44;;;39.31;36.59
51239;BME280;38154;47.548;18.828;2023-07-24T08:10:19;98427.62;;;38.74;36.17
51239;BME280;38154;47.548;18.828;2023-07-24T08:12:45;98423.41;;;38.11;36.95
51239;BME280;38154;47.548;18.828;2023-07-24T08:15:11;98416.25;;;38.18;37.46
51239;BME280;38154;47.548;18.828;2023-07-24T08:17:37;98415.69;;;38.22;37.21
51239;BME280;38154;47.548;18.828;2023-07-24T08:20:03;98421.44;;;38.42;38.22
51239;BME280;38154;47.548;18.828;2023-07-24T08:22:29;98407.78;;;37.66;38.91
51239;BME280;38154;47.548;18.828;2023-07-24T08:24:55;98406.56;;;38.15;37.83
51239;BME280;38154;47.548;18.828;2023-07-24T08:27:21;98405.34;;;37.72;39.30
51239;BME280;38154;47.548;18.828;2023-07-24T08:29:50;98409.50;;;37.28;39.89
51239;BME280;38154;47.548;18.828;2023-07-24T08:32:17;98415.16;;;38.42;38.15
51239;BME280;38154;47.548;18.828;2023-07-24T08:34:43;98417.72;;;39.03;37.22
51239;BME280;38154;47.548;18.828;2023-07-24T08:37:08;98417.19;;;38.63;36.20
51239;BME280;38154;47.548;18.828;2023-07-24T08:39:34;98409.78;;;38.72;36.73
51239;BME280;38154;47.548;18.828;2023-07-24T08:42:08;98410.31;;;39.27;35.39
51239;BME280;38154;47.548;18.828;2023-07-24T08:44:34;98410.88;;;38.92;35.32
51239;BME280;38154;47.548;18.828;2023-07-24T08:47:00;98405.78;;;39.34;32.82
51239;BME280;38154;47.548;18.828;2023-07-24T08:49:29;98396.94;;;39.32;33.31
51239;BME280;38154;47.548;18.828;2023-07-24T08:51:56;98395.19;;;39.09;33.22
51239;BME280;38154;47.548;18.828;2023-07-24T08:54:26;98396.34;;;39.73;32.22
51239;BME280;38154;47.548;18.828;2023-07-24T08:56:52;98399.28;;;38.46;32.89
51239;BME280;38154;47.548;18.828;2023-07-24T08:59:19;98389.66;;;39.39;31.85
51239;BME280;38154;47.548;18.828;2023-07-24T09:01:45;98385.78;;;39.12;32.74
51239;BME280;38154;47.548;18.828;2023-07-24T09:04:11;98374.41;;;38.93;34.10
51239;BME280;38154;47.548;18.828;2023-07-24T09:06:37;98380.72;;;38.64;33.82
51239;BME280;38154;47.548;18.828;2023-07-24T09:09:15;98383.19;;;39.40;31.90
51239;BME280;38154;47.548;18.828;2023-07-24T09:11:51;98387.25;;;39.66;32.05
51239;BME280;38154;47.548;18.828;2023-07-24T09:14:25;98386.91;;;39.03;32.38
51239;BME280;38154;47.548;18.828;2023-07-24T09:17:08;98384.22;;;39.39;31.63
51239;BME280;38154;47.548;18.828;2023-07-24T09:19:34;98386.88;;;39.91;31.91
51239;BME280;38154;47.548;18.828;2023-07-24T09:22:14;98365.91;;;39.03;32.04
51239;BME280;38154;47.548;18.828;2023-07-24T09:24:55;98386.56;;;40.29;30.24
51239;BME280;38154;47.548;18.828;2023-07-24T09:27:24;98380.91;;;39.59;30.65
51239;BME280;38154;47.548;18.828;2023-07-24T09:29:51;98377.16;;;39.30;31.84
51239;BME280;38154;47.548;18.828;2023-07-24T09:32:20;98374.81;;;39.63;31.28
51239;BME280;38154;47.548;18.828;2023-07-24T09:34:47;98367.00;;;39.39;30.85
51239;BME280;38154;47.548;18.828;2023-07-24T09:37:24;98376.69;;;39.41;30.46
51239;BME280;38154;47.548;18.828;2023-07-24T09:39:50;98355.44;;;38.85;31.67
51239;BME280;38154;47.548;18.828;2023-07-24T09:42:16;98351.12;;;39.64;31.57
51239;BME280;38154;47.548;18.828;2023-07-24T09:44:42;98334.94;;;40.12;29.89
51239;BME280;38154;47.548;18.828;2023-07-24T09:47:08;98337.28;;;39.65;30.52
51239;BME280;38154;47.548;18.828;2023-07-24T09:49:34;98341.13;;;39.34;31.47
51239;BME280;38154;47.548;18.828;2023-07-24T09:52:04;98336.47;;;38.62;32.92
51239;BME280;38154;47.548;18.828;2023-07-24T09:54:39;98332.47;;;38.94;31.73
51239;BME280;38154;47.548;18.828;2023-07-24T09:57:12;98330.84;;;39.51;30.99
51239;BME280;38154;47.548;18.828;2023-07-24T09:59:39;98316.25;;;39.23;31.44
51239;BME280;38154;47.548;18.828;2023-07-24T10:02:06;98325.00;;;39.55;31.07
51239;BME280;38154;47.548;18.828;2023-07-24T10:04:36;98325.28;;;39.45;30.54
51239;BME280;38154;47.548;18.828;2023-07-24T10:07:04;98323.09;;;39.98;29.49
51239;BME280;38154;47.548;18.828;2023-07-24T10:09:31;98322.34;;;40.11;28.99
51239;BME280;38154;47.548;18.828;2023-07-24T10:11:57;98324.94;;;40.48;29.28
51239;BME280;38154;47.548;18.828;2023-07-24T10:14:24;98318.59;;;40.19;29.28
51239;BME280;38154;47.548;18.828;2023-07-24T10:16:51;98311.03;;;40.14;28.00
51239;BME280;38154;47.548;18.828;2023-07-24T10:19:21;98317.59;;;40.55;28.46
51239;BME280;38154;47.548;18.828;2023-07-24T10:21:48;98308.91;;;40.10;27.96
51239;BME280;38154;47.548;18.828;2023-07-24T10:24:17;98303.56;;;39.51;28.58
51239;BME280;38154;47.548;18.828;2023-07-24T10:26:44;98299.31;;;38.76;29.22
51239;BME280;38154;47.548;18.828;2023-07-24T10:29:10;98289.22;;;38.25;30.65
51239;BME280;38154;47.548;18.828;2023-07-24T10:31:36;98281.94;;;38.77;30.92
51239;BME280;38154;47.548;18.828;2023-07-24T10:34:05;98281.25;;;38.90;30.52
51239;BME280;38154;47.548;18.828;2023-07-24T10:36:36;98289.13;;;38.63;30.55
51239;BME280;38154;47.548;18.828;2023-07-24T10:39:02;98281.22;;;38.53;32.03
51239;BME280;38154;47.548;18.828;2023-07-24T10:41:35;98276.09;;;38.95;30.02
51239;BME280;38154;47.548;18.828;2023-07-24T10:44:02;98274.56;;;39.07;29.33
51239;BME280;38154;47.548;18.828;2023-07-24T10:46:39;98278.56;;;38.75;29.73
51239;BME280;38154;47.548;18.828;2023-07-24T10:49:07;98271.16;;;38.39;30.29
51239;BME280;38154;47.548;18.828;2023-07-24T10:51:33;98269.34;;;38.76;29.47
51239;BME280;38154;47.548;18.828;2023-07-24T10:54:02;98270.91;;;39.00;28.23
51239;BME280;38154;47.548;18.828;2023-07-24T10:56:28;98251.03;;;37.57;31.82
51239;BME280;38154;47.548;18.828;2023-07-24T10:58:54;98251.62;;;38.20;29.55
51239;BME280;38154;47.548;18.828;2023-07-24T11:01:20;98249.34;;;37.94;31.07
51239;BME280;38154;47.548;18.828;2023-07-24T11:03:48;98246.19;;;37.67;30.77
51239;BME280;38154;47.548;18.828;2023-07-24T11:06:16;98234.56;;;37.36;30.78
51239;BME280;38154;47.548;18.828;2023-07-24T11:08:50;98236.78;;;37.55;30.92
51239;BME280;38154;47.548;18.828;2023-07-24T11:11:16;98227.41;;;37.11;32.13
51239;BME280;38154;47.548;18.828;2023-07-24T11:13:42;98225.91;;;36.07;32.37
51239;BME280;38154;47.548;18.828;2023-07-24T11:16:08;98214.28;;;35.48;33.19
51239;BME280;38154;47.548;18.828;2023-07-24T11:18:44;98212.78;;;34.70;33.87
51239;BME280;38154;47.548;18.828;2023-07-24T11:21:12;98212.41;;;34.57;34.56
51239;BME280;38154;47.548;18.828;2023-07-24T11:23:44;98214.59;;;35.70;33.80
51239;BME280;38154;47.548;18.828;2023-07-24T11:26:10;98212.09;;;36.25;32.87
51239;BME280;38154;47.548;18.828;2023-07-24T11:28:40;98202.75;;;37.21;32.24
51239;BME280;38154;47.548;18.828;2023-07-24T11:31:06;98194.72;;;37.66;31.59
51239;BME280;38154;47.548;18.828;2023-07-24T11:33:32;98184.84;;;37.27;31.93
51239;BME280;38154;47.548;18.828;2023-07-24T11:35:59;98180.44;;;37.79;30.60
51239;BME280;38154;47.548;18.828;2023-07-24T11:38:25;98172.28;;;38.09;30.23
51239;BME280;38154;47.548;18.828;2023-07-24T11:40:54;98168.91;;;37.01;31.02
51239;BME280;38154;47.548;18.828;2023-07-24T11:43:23;98157.00;;;36.47;32.42
51239;BME280;38154;47.548;18.828;2023-07-24T11:45:50;98148.00;;;36.15;33.21
51239;BME280;38154;47.548;18.828;2023-07-24T11:48:21;98151.00;;;35.81;34.63
51239;BME280;38154;47.548;18.828;2023-07-24T11:50:54;98152.59;;;35.26;34.75
51239;BME280;38154;47.548;18.828;2023-07-24T11:53:24;98140.91;;;34.92;35.70
51239;BME280;38154;47.548;18.828;2023-07-24T11:55:52;98134.41;;;34.61;35.19
51239;BME280;38154;47.548;18.828;2023-07-24T11:58:19;98135.47;;;34.68;35.78
51239;BME280;38154;47.548;18.828;2023-07-24T12:00:47;98125.94;;;34.47;35.82
51239;BME280;38154;47.548;18.828;2023-07-24T12:03:27;98127.44;;;34.42;36.17
51239;BME280;38154;47.548;18.828;2023-07-24T12:05:53;98118.31;;;34.00;37.80
51239;BME280;38154;47.548;18.828;2023-07-24T12:08:33;98126.41;;;34.26;37.67
51239;BME280;38154;47.548;18.828;2023-07-24T12:11:00;98121.91;;;34.09;35.67
51239;BME280;38154;47.548;18.828;2023-07-24T12:13:26;98116.31;;;34.10;37.18
51239;BME280;38154;47.548;18.828;2023-07-24T12:15:52;98111.91;;;34.01;37.35
51239;BME280;38154;47.548;18.828;2023-07-24T12:18:17;98102.75;;;33.86;38.77
51239;BME280;38154;47.548;18.828;2023-07-24T12:20:43;98103.09;;;33.64;38.89
51239;BME280;38154;47.548;18.828;2023-07-24T12:23:09;98103.50;;;32.99;40.10
51239;BME280;38154;47.548;18.828;2023-07-24T12:25:35;98093.69;;;33.16;40.67
51239;BME280;38154;47.548;18.828;2023-07-24T12:28:01;98097.13;;;33.79;39.09
51239;BME280;38154;47.548;18.828;2023-07-24T12:30:27;98093.03;;;33.40;38.81
51239;BME280;38154;47.548;18.828;2023-07-24T12:32:53;98085.41;;;33.70;39.19
51239;BME280;38154;47.548;18.828;2023-07-24T12:35:19;98086.56;;;34.10;38.93
51239;BME280;38154;47.548;18.828;2023-07-24T12:37:45;98090.94;;;34.03;37.86
51239;BME280;38154;47.548;18.828;2023-07-24T12:40:12;98073.00;;;34.02;38.69
51239;BME280;38154;47.548;18.828;2023-07-24T12:42:38;98064.47;;;34.23;39.10
51239;BME280;38154;47.548;18.828;2023-07-24T12:45:04;98071.38;;;34.17;38.33
51239;BME280;38154;47.548;18.828;2023-07-24T12:47:31;98068.22;;;34.30;38.83
51239;BME280;38154;47.548;18.828;2023-07-24T12:49:57;98066.66;;;34.19;38.39